createdAt,value
2022-08-10T00:01:00.231Z,27.07
2022-08-10T00:03:43.941Z,27.08
2022-08-10T00:06:20.398Z,26.94
2022-08-10T00:08:50.708Z,26.93
2022-08-10T00:11:29.801Z,26.88
2022-08-10T00:14:00.786Z,26.86
2022-08-10T00:16:51.302Z,26.84
2022-08-10T00:19:25.997Z,26.85
2022-08-10T00:22:33.920Z,26.82
2022-08-10T00:25:15.549Z,26.74
2022-08-10T00:28:02.596Z,26.75
2022-08-10T00:30:47.294Z,26.77
2022-08-10T00:33:29.738Z,26.72
2022-08-10T00:36:18.193Z,26.69
2022-08-10T00:38:50.093Z,26.71
2022-08-10T00:41:31.551Z,26.65
2022-08-10T00:44:11.532Z,26.44
2022-08-10T00:46:42.455Z,26.56
2022-08-10T00:49:30.791Z,26.65
2022-08-10T00:52:08.415Z,26.62
2022-08-10T00:54:48.850Z,26.68
2022-08-10T00:57:45.676Z,26.61
2022-08-10T01:00:28.292Z,26.38
2022-08-10T01:03:05.704Z,26.49
2022-08-10T01:05:54.139Z,26.64
2022-08-10T01:08:49.794Z,26.62
2022-08-10T01:12:39.280Z,26.56
2022-08-10T01:15:16.955Z,26.55
2022-08-10T01:18:42.103Z,26.42
2022-08-10T01:22:03.174Z,26.47
2022-08-10T01:24:59.674Z,26.41
2022-08-10T01:28:01.037Z,26.33
2022-08-10T01:30:39.870Z,26.33
2022-08-10T01:33:58.601Z,26.36
2022-08-10T01:36:47.216Z,26.28
2022-08-10T01:39:32.111Z,26.34
2022-08-10T01:42:03.059Z,26.32
2022-08-10T01:44:39.595Z,26.26
2022-08-10T01:47:36.782Z,26.24
2022-08-10T01:50:30.763Z,26.24
2022-08-10T01:53:12.371Z,26.25
2022-08-10T01:55:42.569Z,26.17
2022-08-10T01:58:14.328Z,26.19
2022-08-10T02:00:48.602Z,26.17
2022-08-10T02:03:20.078Z,25.86
2022-08-10T02:05:56.095Z,26.04
2022-08-10T02:08:26.795Z,26.06
2022-08-10T02:10:57.395Z,26.02
2022-08-10T02:13:29.766Z,26.06
2022-08-10T02:16:02.562Z,25.98
2022-08-10T02:18:34.409Z,26.01
2022-08-10T02:21:07.007Z,26.01
2022-08-10T02:23:39.742Z,25.96
2022-08-10T02:26:12.150Z,25.91
2022-08-10T02:28:41.308Z,25.94
2022-08-10T02:31:17.178Z,25.93
2022-08-10T02:33:57.220Z,25.91
2022-08-10T02:36:34.574Z,25.85
2022-08-10T02:39:09.278Z,25.82
2022-08-10T02:45:20.243Z,25.78
2022-08-10T02:45:31.170Z,25.80
2022-08-10T02:48:07.490Z,25.76
2022-08-10T02:50:38.832Z,25.72
2022-08-10T02:53:54.403Z,25.75
2022-08-10T02:56:46.466Z,25.71
2022-08-10T02:59:22.226Z,25.64
2022-08-10T03:01:54.288Z,25.62
2022-08-10T03:04:55.627Z,25.57
2022-08-10T03:07:43.399Z,25.55
2022-08-10T03:10:21.638Z,25.52
2022-08-10T03:12:56.606Z,25.56
2022-08-10T03:15:31.610Z,25.50
2022-08-10T03:18:02.039Z,25.52
2022-08-10T03:20:40.138Z,25.47
2022-08-10T03:23:16.392Z,25.46
2022-08-10T03:25:54.220Z,25.45
2022-08-10T03:28:25.713Z,25.40
2022-08-10T03:30:55.245Z,25.39
2022-08-10T03:33:27.738Z,25.40
2022-08-10T03:36:40.601Z,25.38
2022-08-10T03:38:48.651Z,25.37
2022-08-10T03:41:20.339Z,25.32
2022-08-10T03:43:50.724Z,25.32
2022-08-10T03:46:22.037Z,25.30
2022-08-10T03:48:55.818Z,25.26
2022-08-10T03:51:27.833Z,25.25
2022-08-10T03:54:03.257Z,25.17
2022-08-10T03:56:33.172Z,25.17
2022-08-10T03:59:02.206Z,25.21
2022-08-10T04:02:46.744Z,25.10
2022-08-10T04:04:24.543Z,25.05
2022-08-10T04:06:57.272Z,25.14
2022-08-10T04:09:53.525Z,25.14
2022-08-10T04:12:28.944Z,24.96
2022-08-10T04:14:56.895Z,24.94
2022-08-10T04:17:57.081Z,25.00
2022-08-10T04:20:36.975Z,24.99
2022-08-10T04:23:24.449Z,24.98
2022-08-10T04:25:53.793Z,24.89
2022-08-10T04:28:22.690Z,24.91
2022-08-10T04:30:53.761Z,24.93
2022-08-10T04:33:24.761Z,24.70
2022-08-10T04:35:53.526Z,24.83
2022-08-10T04:38:25.245Z,24.92
2022-08-10T04:40:54.226Z,24.93
2022-08-10T04:43:22.310Z,24.86
2022-08-10T04:45:51.913Z,24.94
2022-08-10T04:48:41.229Z,24.96
2022-08-10T04:51:17.662Z,24.91
2022-08-10T04:54:05.184Z,24.92
2022-08-10T04:56:38.548Z,24.90
2022-08-10T04:59:09.451Z,24.96
2022-08-10T05:02:22.744Z,24.92
2022-08-10T05:04:35.020Z,24.96
2022-08-10T05:07:16.816Z,25.00
2022-08-10T05:10:01.859Z,24.99
2022-08-10T05:12:37.393Z,24.98
2022-08-10T05:15:12.496Z,24.99
2022-08-10T05:18:08.277Z,25.04
2022-08-10T05:20:31.250Z,24.97
2022-08-10T05:22:59.640Z,25.08
2022-08-10T05:25:27.923Z,25.09
2022-08-10T05:27:57.703Z,25.04
2022-08-10T05:30:26.568Z,25.09
2022-08-10T05:32:57.164Z,25.07
2022-08-10T05:35:55.528Z,25.15
2022-08-10T05:38:38.466Z,25.08
2022-08-10T05:41:06.822Z,25.15
2022-08-10T05:43:35.039Z,25.19
2022-08-10T05:46:18.084Z,25.21
2022-08-10T05:48:59.146Z,25.20
2022-08-10T05:51:30.201Z,25.26
2022-08-10T05:54:06.111Z,25.28
2022-08-10T05:56:55.249Z,25.24
2022-08-10T06:00:33.383Z,25.26
2022-08-10T06:02:35.506Z,25.31
2022-08-10T06:05:08.744Z,25.30
2022-08-10T06:08:08.689Z,25.42
2022-08-10T06:10:45.193Z,25.42
2022-08-10T06:13:57.925Z,25.44
2022-08-10T06:16:35.961Z,25.50
2022-08-10T06:19:04.209Z,25.56
2022-08-10T06:21:33.490Z,25.62
2022-08-10T06:24:03.653Z,25.68
2022-08-10T06:26:31.763Z,25.71
2022-08-10T06:29:10.420Z,25.80
2022-08-10T06:31:49.794Z,25.91
2022-08-10T06:34:35.987Z,26.06
2022-08-10T06:37:07.577Z,26.12
2022-08-10T06:39:37.359Z,26.29
2022-08-10T06:42:52.418Z,26.45
2022-08-10T06:45:31.668Z,26.63
2022-08-10T06:48:32.446Z,26.75
2022-08-10T06:51:07.174Z,26.82
2022-08-10T06:53:52.047Z,26.91
2022-08-10T06:56:37.442Z,27.02
2022-08-10T06:59:22.046Z,27.17
2022-08-10T07:02:14.712Z,27.21
2022-08-10T07:05:04.187Z,27.38
2022-08-10T07:07:39.277Z,27.40
2022-08-10T07:10:41.097Z,27.47
2022-08-10T07:14:14.021Z,27.56
2022-08-10T07:16:33.832Z,27.61
2022-08-10T07:19:20.663Z,27.74
2022-08-10T07:22:10.186Z,27.75
2022-08-10T07:25:06.986Z,27.86
2022-08-10T07:28:00.836Z,27.97
2022-08-10T07:31:01.731Z,28.06
2022-08-10T07:33:29.055Z,28.16
2022-08-10T07:36:01.433Z,28.27
2022-08-10T07:39:16.786Z,28.39
2022-08-10T07:41:42.537Z,28.51
2022-08-10T07:44:29.871Z,28.47
2022-08-10T07:47:18.672Z,28.54
2022-08-10T07:50:11.224Z,28.68
2022-08-10T07:52:55.506Z,28.68
2022-08-10T07:56:01.419Z,28.80
2022-08-10T07:58:57.980Z,28.88
2022-08-10T08:01:38.483Z,28.96
2022-08-10T08:04:31.531Z,29.01
2022-08-10T08:07:18.351Z,29.10
2022-08-10T08:10:00.988Z,29.16
2022-08-10T08:12:58.073Z,29.18
2022-08-10T08:16:19.613Z,29.23
2022-08-10T08:18:37.907Z,29.33
2022-08-10T08:24:08.802Z,29.38
2022-08-10T08:24:24.066Z,29.43
2022-08-10T08:27:00.033Z,29.50
2022-08-10T08:29:31.294Z,29.61
2022-08-10T08:32:02.648Z,29.61
2022-08-10T08:34:34.368Z,29.69
2022-08-10T08:37:07.302Z,29.76
2022-08-10T08:39:37.502Z,29.84
2022-08-10T08:42:49.468Z,29.85
2022-08-10T08:45:48.212Z,29.92
2022-08-10T08:49:11.182Z,29.93
2022-08-10T08:52:18.203Z,29.94
2022-08-10T08:56:06.120Z,29.94
2022-08-10T08:58:48.123Z,29.99
2022-08-10T09:01:38.164Z,30.05
2022-08-10T09:04:31.429Z,30.12
2022-08-10T09:07:59.175Z,30.17
2022-08-10T09:10:37.195Z,30.16
2022-08-10T09:14:00.477Z,30.12
2022-08-10T09:16:53.920Z,30.24
2022-08-10T09:19:51.383Z,30.29
2022-08-10T09:22:58.952Z,30.45
2022-08-10T09:25:35.868Z,30.45
2022-08-10T09:28:12.116Z,30.44
2022-08-10T09:31:21.563Z,30.61
2022-08-10T09:36:21.414Z,30.66
2022-08-10T09:37:22.007Z,30.65
2022-08-10T09:40:12.355Z,30.79
2022-08-10T09:43:25.563Z,30.91
2022-08-10T09:46:28.955Z,30.95
2022-08-10T09:49:25.898Z,31.00
2022-08-10T09:52:22.016Z,31.09
2022-08-10T09:55:15.765Z,31.17
2022-08-10T09:58:28.678Z,31.18
2022-08-10T10:01:56.328Z,31.29
2022-08-10T10:04:33.304Z,31.35
2022-08-10T10:07:10.894Z,31.39
2022-08-10T10:10:20.108Z,31.49
2022-08-10T10:13:07.172Z,31.53
2022-08-10T10:15:51.010Z,31.57
2022-08-10T10:18:28.128Z,31.64
2022-08-10T10:21:01.407Z,31.69
2022-08-10T10:24:21.076Z,31.70
2022-08-10T10:27:39.100Z,31.73
2022-08-10T10:30:13.394Z,31.75
2022-08-10T10:33:14.518Z,31.80
2022-08-10T10:35:55.032Z,31.84
2022-08-10T10:38:32.146Z,31.89
2022-08-10T10:41:56.008Z,31.97
2022-08-10T10:44:52.516Z,31.95
2022-08-10T10:48:23.948Z,32.01
2022-08-10T10:51:15.213Z,31.95
2022-08-10T10:58:00.257Z,32.02
2022-08-10T11:00:32.327Z,31.93
2022-08-10T11:07:39.536Z,32.19
2022-08-10T11:11:20.547Z,32.24
2022-08-10T11:14:36.314Z,32.25
2022-08-10T11:17:34.688Z,32.34
2022-08-10T11:20:32.493Z,32.32
2022-08-10T11:23:41.274Z,32.35
2022-08-10T11:27:17.401Z,32.42
2022-08-10T11:30:19.966Z,32.45
2022-08-10T11:33:07.777Z,32.55
2022-08-10T11:40:18.830Z,32.57
2022-08-10T11:44:37.414Z,32.65
2022-08-10T11:46:34.738Z,32.63
2022-08-10T11:49:29.356Z,32.67
2022-08-10T11:52:26.759Z,32.68
2022-08-10T11:55:15.497Z,32.74
2022-08-10T12:01:29.437Z,32.71
2022-08-10T12:04:13.355Z,32.78
2022-08-10T12:06:56.044Z,32.83
2022-08-10T12:10:10.300Z,32.81
2022-08-10T12:12:19.188Z,32.83
2022-08-10T12:15:12.744Z,32.81
2022-08-10T12:17:51.144Z,32.90
2022-08-10T12:20:31.843Z,32.87
2022-08-10T12:23:41.922Z,32.98
2022-08-10T12:26:22.536Z,32.97
2022-08-10T12:29:09.152Z,33.03
2022-08-10T12:32:06.786Z,33.00
2022-08-10T12:35:04.614Z,33.04
2022-08-10T12:37:50.891Z,33.11
2022-08-10T12:40:36.171Z,33.13
2022-08-10T12:44:07.186Z,33.12
2022-08-10T12:46:39.169Z,33.09
2022-08-10T12:50:29.531Z,33.18
2022-08-10T12:53:11.174Z,33.23
2022-08-10T12:55:40.476Z,33.19
2022-08-10T12:58:59.691Z,33.32
2022-08-10T13:01:16.720Z,33.34
2022-08-10T13:04:23.422Z,33.41
2022-08-10T13:06:50.093Z,33.38
2022-08-10T13:09:26.045Z,33.39
2022-08-10T13:12:34.393Z,33.43
2022-08-10T13:15:48.888Z,33.47
2022-08-10T13:18:41.797Z,33.43
2022-08-10T13:21:19.709Z,33.20
2022-08-10T13:24:13.201Z,33.38
2022-08-10T13:27:25.794Z,33.42
2022-08-10T13:30:10.322Z,33.42
2022-08-10T13:32:50.280Z,33.45
2022-08-10T13:35:22.300Z,33.47
2022-08-10T13:37:59.985Z,33.48
2022-08-10T13:40:33.128Z,33.52
2022-08-10T13:43:16.250Z,33.56
2022-08-10T13:45:53.543Z,33.54
2022-08-10T13:48:42.563Z,33.60
2022-08-10T13:51:15.835Z,33.57
2022-08-10T13:53:47.457Z,33.71
2022-08-10T13:56:18.745Z,33.70
2022-08-10T13:58:55.334Z,33.73
2022-08-10T14:01:33.149Z,33.74
2022-08-10T14:04:04.114Z,33.72
2022-08-10T14:06:42.106Z,33.77
2022-08-10T14:09:17.948Z,33.80
2022-08-10T14:11:51.441Z,33.79
2022-08-10T14:14:21.953Z,33.81
2022-08-10T14:16:57.888Z,33.77
2022-08-10T14:19:36.705Z,33.91
2022-08-10T14:22:42.334Z,33.98
2022-08-10T14:25:23.514Z,34.00
2022-08-10T14:28:07.128Z,34.12
2022-08-10T14:30:35.919Z,34.25
2022-08-10T14:33:20.819Z,34.31
2022-08-10T14:36:18.515Z,34.23
2022-08-10T14:39:05.570Z,34.21
2022-08-10T14:42:04.455Z,34.14
2022-08-10T14:44:35.392Z,34.12
2022-08-10T14:47:52.560Z,34.08
2022-08-10T14:50:34.689Z,34.08
2022-08-10T14:53:26.848Z,34.11
2022-08-10T14:56:08.380Z,34.10
2022-08-10T14:59:07.058Z,34.08
2022-08-10T15:02:00.401Z,34.07
2022-08-10T15:04:37.613Z,34.05
2022-08-10T15:07:34.869Z,34.18
2022-08-10T15:10:09.821Z,34.08
2022-08-10T15:12:40.920Z,34.11
2022-08-10T15:15:16.497Z,34.07
2022-08-10T15:17:53.022Z,34.08
2022-08-10T15:20:29.961Z,34.04
2022-08-10T15:23:30.647Z,34.08
2022-08-10T15:26:11.093Z,33.99
2022-08-10T15:29:22.385Z,34.00
2022-08-10T15:32:01.426Z,33.97
2022-08-10T15:34:52.868Z,34.01
2022-08-10T15:37:47.088Z,33.97
2022-08-10T15:40:23.875Z,34.04
2022-08-10T15:43:05.574Z,33.99
2022-08-10T15:46:20.619Z,34.05
2022-08-10T15:49:07.879Z,34.06
2022-08-10T15:51:58.242Z,34.06
2022-08-10T15:54:39.072Z,33.99
2022-08-10T15:57:27.891Z,33.94
2022-08-10T16:00:17.321Z,33.94
2022-08-10T16:03:08.222Z,33.92
2022-08-10T16:06:01.989Z,33.92
2022-08-10T16:08:56.209Z,33.88
2022-08-10T16:11:38.724Z,33.83
2022-08-10T16:14:18.479Z,33.92
2022-08-10T16:16:56.428Z,33.91
2022-08-10T16:19:26.790Z,33.93
2022-08-10T16:22:36.265Z,33.92
2022-08-10T16:25:15.783Z,33.91
2022-08-10T16:27:45.089Z,33.82
2022-08-10T16:30:15.233Z,33.91
2022-08-10T16:32:49.363Z,33.86
2022-08-10T16:35:27.862Z,33.91
2022-08-10T16:37:59.834Z,33.85
2022-08-10T16:40:30.547Z,33.91
2022-08-10T16:43:05.232Z,33.84
2022-08-10T16:45:50.870Z,33.83
2022-08-10T16:48:48.733Z,33.80
2022-08-10T16:51:22.286Z,33.80
2022-08-10T16:53:53.043Z,33.78
2022-08-10T16:56:48.871Z,33.79
2022-08-10T16:59:24.290Z,33.57
2022-08-10T17:01:58.159Z,33.57
2022-08-10T17:04:29.627Z,33.70
2022-08-10T17:07:03.425Z,33.65
2022-08-10T17:09:36.423Z,33.67
2022-08-10T17:12:11.659Z,33.67
2022-08-10T17:14:46.249Z,33.63
2022-08-10T17:17:31.061Z,33.37
2022-08-10T17:20:31.892Z,33.45
2022-08-10T17:23:00.673Z,33.46
2022-08-10T17:25:48.322Z,33.50
2022-08-10T17:28:35.268Z,33.43
2022-08-10T17:31:53.909Z,33.39
2022-08-10T17:34:23.680Z,33.37
2022-08-10T17:36:58.768Z,33.37
2022-08-10T17:39:49.957Z,33.33
2022-08-10T17:42:24.498Z,33.32
2022-08-10T17:44:55.792Z,33.29
2022-08-10T17:47:28.129Z,33.24
2022-08-10T17:50:00.705Z,33.17
2022-08-10T17:52:33.410Z,33.15
2022-08-10T17:55:06.363Z,33.20
2022-08-10T17:57:40.462Z,33.08
2022-08-10T18:00:17.066Z,33.08
2022-08-10T18:02:49.566Z,33.06
2022-08-10T18:05:20.549Z,33.06
2022-08-10T18:07:56.446Z,33.01
2022-08-10T18:10:25.904Z,32.91
2022-08-10T18:12:56.329Z,32.94
2022-08-10T18:15:28.970Z,32.86
2022-08-10T18:18:03.701Z,32.80
2022-08-10T18:20:38.557Z,32.76
2022-08-10T18:23:08.557Z,32.74
2022-08-10T18:25:43.913Z,32.70
2022-08-10T18:28:19.925Z,32.67
2022-08-10T18:30:52.991Z,32.59
2022-08-10T18:33:32.235Z,32.55
2022-08-10T18:36:09.876Z,32.51
2022-08-10T18:38:43.989Z,32.44
2022-08-10T18:41:38.867Z,32.35
2022-08-10T18:44:44.994Z,32.31
2022-08-10T18:47:27.051Z,32.22
2022-08-10T18:50:12.456Z,32.14
2022-08-10T18:52:47.359Z,32.10
2022-08-10T18:56:10.239Z,32.05
2022-08-10T18:59:15.978Z,31.90
2022-08-10T19:02:17.608Z,31.78
2022-08-10T19:05:31.359Z,31.74
2022-08-10T19:08:48.758Z,31.59
2022-08-10T19:11:33.896Z,31.56
2022-08-10T19:14:36.055Z,31.48
2022-08-10T19:18:02.839Z,31.45
2022-08-10T19:20:32.672Z,31.34
2022-08-10T19:23:51.808Z,31.29
2022-08-10T19:26:46.268Z,31.19
2022-08-10T19:30:09.037Z,31.18
2022-08-10T19:33:25.727Z,30.99
2022-08-10T19:36:45.137Z,30.97
2022-08-10T19:39:51.126Z,30.79
2022-08-10T19:42:57.010Z,30.80
2022-08-10T19:46:14.059Z,30.69
2022-08-10T19:49:08.517Z,30.68
2022-08-10T19:52:11.893Z,30.60
2022-08-10T19:55:42.386Z,30.51
2022-08-10T19:58:59.391Z,30.42
2022-08-10T20:01:55.604Z,30.35
2022-08-10T20:04:32.532Z,30.29
2022-08-10T20:07:24.881Z,30.27
2022-08-10T20:10:20.716Z,30.16
2022-08-10T20:13:44.013Z,30.07
2022-08-10T20:16:41.030Z,29.90
2022-08-10T20:19:53.378Z,29.91
2022-08-10T20:22:37.439Z,29.67
2022-08-10T20:25:28.094Z,29.62
2022-08-10T20:28:07.947Z,29.53
2022-08-10T20:30:46.867Z,29.36
2022-08-10T20:33:31.452Z,29.36
2022-08-10T20:36:37.868Z,29.30
2022-08-10T20:39:19.606Z,28.96
2022-08-10T20:42:27.096Z,29.00
2022-08-10T20:45:27.426Z,29.07
2022-08-10T20:48:22.900Z,28.99
2022-08-10T20:51:13.973Z,28.96
2022-08-10T20:53:59.060Z,28.89
2022-08-10T20:57:55.081Z,28.76
2022-08-10T21:00:23.280Z,28.69
2022-08-10T21:03:43.576Z,28.74
2022-08-10T21:07:28.248Z,28.61
2022-08-10T21:10:26.918Z,28.60
2022-08-10T21:13:49.521Z,28.60
2022-08-10T21:16:59.185Z,28.54
2022-08-10T21:20:11.398Z,28.46
2022-08-10T21:22:47.193Z,28.50
2022-08-10T21:25:47.949Z,28.45
2022-08-10T21:29:10.148Z,28.42
2022-08-10T21:32:35.815Z,28.32
2022-08-10T21:35:37.688Z,28.20
2022-08-10T21:38:43.937Z,28.23
2022-08-10T21:45:59.601Z,28.16
2022-08-10T21:49:22.890Z,28.08
2022-08-10T21:52:33.303Z,28.00
2022-08-10T21:55:34.486Z,27.95
2022-08-10T21:59:12.808Z,27.74
2022-08-10T22:02:28.380Z,27.71
2022-08-10T22:05:39.011Z,27.65
2022-08-10T22:08:29.927Z,27.59
2022-08-10T22:11:37.384Z,27.55
2022-08-10T22:14:34.103Z,27.55
2022-08-10T22:18:00.768Z,27.49
2022-08-10T22:20:52.574Z,27.48
2022-08-10T22:24:33.274Z,27.52
2022-08-10T22:27:46.244Z,27.50
2022-08-10T22:30:38.194Z,27.42
2022-08-10T22:31:25.113Z,28.21
2022-08-10T22:34:11.967Z,27.31
2022-08-10T22:37:20.912Z,27.32
2022-08-10T22:40:41.291Z,27.21
2022-08-10T22:43:48.841Z,27.17
2022-08-10T22:48:27.438Z,27.10
2022-08-10T22:51:15.439Z,27.19
2022-08-10T22:54:30.166Z,27.21
2022-08-10T22:57:22.580Z,27.09
2022-08-10T22:59:51.550Z,27.06
2022-08-10T23:02:29.461Z,27.07
2022-08-10T23:05:12.962Z,27.07
2022-08-10T23:07:58.562Z,27.05
2022-08-10T23:10:34.040Z,27.01
2022-08-10T23:13:41.920Z,27.00
2022-08-10T23:16:43.195Z,27.02
2022-08-10T23:19:20.834Z,26.70
2022-08-10T23:22:10.969Z,26.84
2022-08-10T23:25:03.322Z,26.81
2022-08-10T23:27:39.676Z,26.71
2022-08-10T23:30:17.609Z,26.68
2022-08-10T23:32:52.173Z,26.66
2022-08-10T23:36:29.787Z,26.66
2022-08-10T23:38:20.789Z,26.57
2022-08-10T23:41:11.293Z,26.49
2022-08-10T23:44:04.242Z,26.48
2022-08-10T23:46:39.966Z,26.47
2022-08-10T23:49:12.436Z,26.44
2022-08-10T23:51:55.985Z,26.45
2022-08-10T23:54:26.546Z,26.39
2022-08-10T23:57:01.771Z,26.35
2022-08-10T23:59:35.033Z,26.27
